Time;durP1;ratioP1;P1;durP2;ratioP2;P2;SDS_P1;SDS_P2;PMS_P1;PMS_P2;Temp;Humidity;BMP_temperature;BMP_pressure;BME280_temperature;BME280_humidity;BME280_pressure;Samples;Min_cycle;Max_cycle;Signal;HPM_P1;HPM_P2
2023/08/17 07:23:46;;;;;;;5.55;3.88;;;;;;;-145.79;70.76;77326.41;5322776;27;20424;-79
2023/08/17 07:26:20;;;;;;;6.65;4.10;;;;;;;-145.79;71.29;77320.03;5311851;28;20097;-80
2023/08/17 07:28:52;;;;;;;6.13;4.07;;;;;;;-145.79;71.65;77296.72;5316040;28;20032;-80
2023/08/17 07:31:23;;;;;;;8.32;3.90;;;;;;;-145.79;71.50;77303.09;5311385;28;20038;-80
2023/08/17 07:33:55;;;;;;;3.80;2.95;;;;;;;-145.79;70.77;77267.06;5320808;28;20032;-80
2023/08/17 07:36:26;;;;;;;4.78;3.28;;;;;;;-145.79;70.63;77267.06;5313877;28;20025;-81
2023/08/17 07:38:57;;;;;;;4.25;3.55;;;;;;;-145.79;69.93;77275.53;5313805;28;20016;-81
2023/08/17 07:41:29;;;;;;;5.43;3.70;;;;;;;-145.79;69.37;77271.28;5313012;28;20119;-78
2023/08/17 07:44:00;;;;;;;6.57;3.50;;;;;;;-145.79;69.58;77262.81;5322126;28;20016;-80
2023/08/17 07:46:31;;;;;;;5.80;3.53;;;;;;;-145.79;69.47;77258.56;5318005;28;20103;-81
2023/08/17 07:49:03;;;;;;;6.85;4.10;;;;;;;-145.79;68.94;77279.78;5313421;28;20102;-82
2023/08/17 07:51:34;;;;;;;10.07;4.53;;;;;;;-145.79;69.25;77275.53;5324327;27;20034;-81
2023/08/17 07:54:06;;;;;;;6.53;3.78;;;;;;;-145.79;68.84;77262.81;5317150;28;20055;-80
2023/08/17 07:56:37;;;;;;;4.25;2.85;;;;;;;-145.79;68.77;77258.56;5317092;28;20027;-81
2023/08/17 07:59:08;;;;;;;7.20;3.53;;;;;;;-145.79;68.26;77245.84;5325206;28;20479;-80
2023/08/17 08:01:40;;;;;;;5.57;3.95;;;;;;;-145.79;67.90;77241.63;5325551;27;20039;-81
2023/08/17 08:04:11;;;;;;;6.65;3.65;;;;;;;-145.79;67.98;77260.69;5316920;28;20040;-81
2023/08/17 08:06:42;;;;;;;7.43;3.35;;;;;;;-145.79;68.11;77254.34;5308763;28;20036;-78
2023/08/17 08:09:14;;;;;;;5.60;5.10;;;;;;;-145.79;67.81;77267.06;5311715;28;20015;-77
2023/08/17 08:11:45;;;;;;;7.70;3.50;;;;;;;-145.79;67.76;77245.84;5305170;28;20032;-77
2023/08/17 08:14:17;;;;;;;8.90;5.60;;;;;;;-145.79;68.15;77211.94;5326650;28;20024;-77
2023/08/17 08:16:48;;;;;;;6.57;3.92;;;;;;;-145.79;66.91;77203.47;5320433;28;20023;-79
2023/08/17 08:19:19;;;;;;;7.30;3.53;;;;;;;-145.79;66.90;77175.91;5321337;28;20490;-79
2023/08/17 08:21:51;;;;;;;6.65;3.22;;;;;;;-145.79;66.70;77178.03;5315011;28;20055;-78
2023/08/17 08:24:22;;;;;;;4.97;3.03;;;;;;;-145.79;66.15;77165.31;5311847;28;20023;-74
2023/08/17 08:26:54;;;;;;;5.93;3.88;;;;;;;-145.79;65.77;77182.28;5312584;28;20024;-78
2023/08/17 08:29:26;;;;;;;7.68;3.72;;;;;;;-145.79;66.06;77175.91;5315068;28;20116;-79
2023/08/17 08:31:59;;;;;;;7.85;4.07;;;;;;;-145.79;65.62;77190.75;5313163;28;20054;-78
2023/08/17 08:34:31;;;;;;;6.03;3.88;;;;;;;-145.79;65.38;77163.19;5301963;28;20036;-80
2023/08/17 08:37:02;;;;;;;5.72;3.60;;;;;;;-145.79;66.12;77182.28;5309537;28;20024;-78
2023/08/17 08:39:48;;;;;;;6.38;3.67;;;;;;;-145.79;66.19;77192.88;5304362;28;20032;-78
2023/08/17 08:42:20;;;;;;;7.55;3.60;;;;;;;-145.79;66.15;77224.66;5304023;28;20032;-77
2023/08/17 08:44:52;;;;;;;5.63;3.88;;;;;;;-145.79;66.46;77211.94;5293692;28;20074;-82
2023/08/17 08:47:25;;;;;;;3.92;3.28;;;;;;;-145.79;66.39;77195.00;5294058;28;20107;-82
2023/08/17 08:50:02;;;;;;;5.53;4.03;;;;;;;-145.79;67.19;77195.00;5299315;28;20032;-82
2023/08/17 08:52:36;;;;;;;7.00;3.45;;;;;;;-145.79;67.02;77186.50;5296118;28;20039;-80
2023/08/17 08:55:14;;;;;;;4.70;3.45;;;;;;;-145.79;66.67;77184.41;5305935;28;20059;-81
2023/08/17 08:57:49;;;;;;;6.30;3.65;;;;;;;-145.79;66.80;77195.00;5302303;28;20506;-81
2023/08/17 09:00:21;;;;;;;5.40;3.50;;;;;;;-145.79;66.65;77211.94;5298813;28;20115;-80
2023/08/17 09:02:53;;;;;;;4.97;2.88;;;;;;;-145.79;67.06;77178.03;5306271;28;20111;-79
2023/08/17 09:05:25;;;;;;;9.15;5.35;;;;;;;-145.79;66.62;77184.41;5299186;28;20454;-80
2023/08/17 09:07:59;;;;;;;7.38;4.18;;;;;;;-145.79;66.90;77186.50;5303894;28;20024;-81
2023/08/17 09:10:30;;;;;;;4.75;3.70;;;;;;;-145.79;66.21;77167.44;5305367;28;20116;-81
2023/08/17 09:13:01;;;;;;;4.50;2.97;;;;;;;-145.79;66.60;77152.59;5294786;28;20119;-81
2023/08/17 09:15:33;;;;;;;4.05;3.50;;;;;;;-145.79;66.15;77150.47;5297415;28;20212;-82
2023/08/17 09:18:07;;;;;;;8.57;4.57;;;;;;;-145.79;66.12;77167.44;5306031;28;20031;-81
2023/08/17 09:20:46;;;;;;;7.70;4.53;;;;;;;-145.79;66.03;77152.59;5296431;28;20448;-81
2023/08/17 09:23:20;;;;;;;5.55;3.95;;;;;;;-145.79;66.17;77156.84;5294315;28;20777;-79
2023/08/17 09:25:52;;;;;;;8.07;5.22;;;;;;;-145.79;65.71;77171.69;5293549;28;20028;-80
2023/08/17 09:28:23;;;;;;;6.47;4.22;;;;;;;-145.79;65.24;77150.47;5303585;28;20531;-81
2023/08/17 09:31:00;;;;;;;10.43;6.55;;;;;;;-145.79;66.23;77163.19;5298851;28;20035;-81
2023/08/17 09:33:32;;;;;;;12.43;10.32;;;;;;;-145.79;66.48;77182.28;5295524;28;20410;-81
2023/08/17 09:36:04;;;;;;;9.50;7.28;;;;;;;-145.79;66.55;77184.41;5297045;28;20031;-79
2023/08/17 09:38:37;;;;;;;8.57;5.57;;;;;;;-145.79;67.09;77188.63;5311293;28;20455;-80
2023/08/17 09:41:09;;;;;;;6.90;4.88;;;;;;;-145.79;66.68;77182.28;5296156;28;20483;-77
2023/08/17 09:43:41;;;;;;;7.90;4.70;;;;;;;-145.79;67.28;77171.69;5290670;28;20125;-80
2023/08/17 09:46:12;;;;;;;9.38;5.60;;;;;;;-145.79;66.89;77178.03;5297304;28;20024;-81
2023/08/17 09:48:47;;;;;;;7.97;5.60;;;;;;;-145.79;66.86;77175.91;5298314;28;20035;-80
2023/08/17 09:51:18;;;;;;;7.10;5.90;;;;;;;-145.79;66.52;77167.44;5302221;28;20024;-81
2023/08/17 09:53:53;;;;;;;6.95;5.88;;;;;;;-145.79;66.45;77154.72;5304529;28;20400;-81
2023/08/17 09:56:31;;;;;;;12.93;7.72;;;;;;;-145.79;67.04;77182.28;5308571;28;20469;-80
2023/08/17 09:59:03;;;;;;;9.73;6.40;;;;;;;-145.79;66.85;77178.03;5305205;28;20115;-81
2023/08/17 10:01:34;;;;;;;9.05;5.57;;;;;;;-145.79;66.95;77163.19;5295847;28;20487;-80
2023/08/17 10:04:06;;;;;;;9.45;6.13;;;;;;;-145.79;67.08;77184.41;5296229;28;20070;-81
2023/08/17 10:06:41;;;;;;;8.05;6.22;;;;;;;-145.79;67.44;77165.31;5312802;28;20093;-80
2023/08/17 10:09:17;;;;;;;10.68;6.95;;;;;;;-145.79;67.03;77161.06;5295631;28;20032;-79
2023/08/17 10:11:52;;;;;;;11.02;7.15;;;;;;;-145.79;67.77;77154.72;5295656;28;20432;-80
2023/08/17 10:14:33;;;;;;;18.02;16.20;;;;;;;-145.79;67.57;77142.00;5292356;28;20029;-80
2023/08/17 10:17:12;;;;;;;11.65;10.38;;;;;;;-145.79;67.01;77129.28;5293905;28;20025;-81
2023/08/17 10:19:52;;;;;;;13.23;7.97;;;;;;;-145.79;67.36;77152.59;5306228;28;20429;-81
2023/08/17 10:22:30;;;;;;;7.53;5.82;;;;;;;-145.79;66.88;77125.03;5295519;28;20607;-81
2023/08/17 10:25:02;;;;;;;12.13;7.95;;;;;;;-145.79;67.63;77142.00;5295448;28;20024;-81
2023/08/17 10:27:34;;;;;;;12.05;7.40;;;;;;;-145.79;67.25;77146.25;5291917;28;20024;-82
2023/08/17 10:30:08;;;;;;;10.75;6.88;;;;;;;-145.79;67.39;77133.53;5305008;28;20020;-82
2023/08/17 10:32:45;;;;;;;8.95;6.45;;;;;;;-145.79;66.97;77142.00;5296204;28;20055;-85
2023/08/17 10:35:16;;;;;;;9.75;7.05;;;;;;;-145.79;67.51;77131.41;5301481;28;20028;-85
2023/08/17 10:37:48;;;;;;;15.48;12.88;;;;;;;-145.79;67.58;77133.53;5296696;28;20355;-82
2023/08/17 10:40:35;;;;;;;23.67;21.15;;;;;;;-145.79;68.57;77148.34;5297739;28;20027;-85
2023/08/17 10:43:06;;;;;;;11.27;7.22;;;;;;;-145.79;68.19;77146.25;5311376;28;20024;-84
2023/08/17 10:45:38;;;;;;;9.73;6.25;;;;;;;-145.79;68.28;77139.88;5308326;28;20024;-83
2023/08/17 10:48:10;;;;;;;7.57;6.78;;;;;;;-145.79;68.62;77137.75;5295214;28;20043;-82
2023/08/17 10:50:58;;;;;;;9.65;7.32;;;;;;;-145.79;68.44;77122.94;5303373;28;20055;-88
2023/08/17 10:53:38;;;;;;;8.90;6.22;;;;;;;-145.79;67.71;77114.44;5300716;28;20047;-81
2023/08/17 10:56:13;;;;;;;10.60;7.85;;;;;;;-145.79;68.36;77148.34;5297582;28;20664;-82
2023/08/17 10:58:44;;;;;;;10.07;6.78;;;;;;;-145.79;68.09;77131.41;5311838;28;20093;-79
2023/08/17 11:01:31;;;;;;;8.32;6.88;;;;;;;-145.79;67.87;77114.44;5296054;28;20047;-83
2023/08/17 11:04:18;;;;;;;8.90;7.10;;;;;;;-145.79;67.67;77093.25;5292855;28;20070;-78
2023/08/17 11:07:02;;;;;;;9.57;7.35;;;;;;;-145.79;67.96;77103.84;5291262;28;20114;-81
2023/08/17 11:09:35;;;;;;;9.30;6.93;;;;;;;-145.79;67.59;77099.63;5294995;28;20032;-81
2023/08/17 11:12:24;;;;;;;13.93;9.10;;;;;;;-145.79;67.93;77097.50;5300043;28;20382;-77
2023/08/17 11:14:59;;;;;;;9.48;7.43;;;;;;;-145.79;68.21;77093.25;5309402;28;20506;-79
2023/08/17 11:17:30;;;;;;;13.50;11.50;;;;;;;-145.79;67.98;77097.50;5296519;28;20074;-78
2023/08/17 11:20:02;;;;;;;10.05;8.60;;;;;;;-145.79;67.58;77091.13;5289003;28;20199;-79
2023/08/17 11:22:33;;;;;;;10.10;8.82;;;;;;;-145.79;67.81;77116.56;5293319;28;20086;-76
2023/08/17 11:25:06;;;;;;;9.95;7.57;;;;;;;-145.79;67.52;77097.50;5290834;28;20025;-84
2023/08/17 11:27:38;;;;;;;11.48;7.78;;;;;;;-145.79;68.01;77093.25;5305175;28;20084;-83
2023/08/17 11:30:10;;;;;;;13.57;8.18;;;;;;;-145.79;67.93;77074.19;5306136;28;20071;-85
2023/08/17 11:32:55;;;;;;;8.80;7.68;;;;;;;-145.79;68.33;77091.13;5310036;28;20122;-85
2023/08/17 11:35:26;;;;;;;9.15;8.13;;;;;;;-145.79;68.62;77118.69;5304138;28;20391;-82
2023/08/17 11:37:58;;;;;;;9.68;8.68;;;;;;;-145.79;69.23;77120.81;5296514;28;20034;-79
2023/08/17 11:40:29;;;;;;;9.63;8.20;;;;;;;-145.79;68.88;77114.44;5291728;28;20028;-82
2023/08/17 11:43:01;;;;;;;9.50;7.97;;;;;;;-145.79;69.07;77120.81;5291556;28;20468;-82
2023/08/17 11:45:33;;;;;;;26.88;24.02;;;;;;;-145.79;68.69;77110.22;5302135;28;20093;-80
2023/08/17 11:48:04;;;;;;;36.17;32.55;;;;;;;-145.79;68.63;77110.22;5297559;28;20334;-73
2023/08/17 11:50:36;;;;;;;11.13;10.02;;;;;;;-145.79;68.90;77110.22;5300624;28;20107;-76
2023/08/17 11:53:07;;;;;;;9.70;8.57;;;;;;;-145.79;68.63;77105.97;5289605;28;20028;-76
2023/08/17 11:55:38;;;;;;;9.80;8.70;;;;;;;-145.79;68.43;77089.00;5289980;28;20020;-76
2023/08/17 11:58:10;;;;;;;11.25;9.68;;;;;;;-145.79;68.15;77101.72;5293650;28;20059;-80
2023/08/17 12:00:46;;;;;;;10.88;9.15;;;;;;;-145.79;68.36;77110.22;5294549;28;20107;-81
2023/08/17 12:03:18;;;;;;;12.30;9.23;;;;;;;-145.79;68.76;77101.72;5309006;28;20150;-86
2023/08/17 12:05:50;;;;;;;11.50;8.55;;;;;;;-145.79;68.48;77093.25;5321673;28;20096;-86
2023/08/17 12:08:24;;;;;;;11.75;9.73;;;;;;;-145.79;68.65;77095.38;5298146;28;20024;-82
2023/08/17 12:10:55;;;;;;;11.13;8.45;;;;;;;-145.79;68.09;77074.19;5306227;28;20111;-82
2023/08/17 12:13:34;;;;;;;12.75;9.60;;;;;;;-145.79;67.90;77074.19;5293794;28;20137;-82
2023/08/17 12:16:14;;;;;;;9.48;7.32;;;;;;;-145.79;67.20;77063.59;5306199;28;20385;-82
2023/08/17 12:18:59;;;;;;;7.82;6.82;;;;;;;-145.79;67.40;77052.97;5298614;28;20035;-83
2023/08/17 12:21:33;;;;;;;11.37;9.50;;;;;;;-145.79;67.87;77078.41;5297493;28;20048;-80
2023/08/17 12:24:14;;;;;;;13.77;9.18;;;;;;;-145.79;67.82;77084.78;5275211;22;20303;-84
2023/08/17 12:26:46;;;;;;;11.13;8.10;;;;;;;-145.79;68.09;77072.06;5262677;28;20025;-80
2023/08/17 12:29:18;;;;;;;9.73;7.60;;;;;;;-145.79;67.61;77063.59;5277854;28;20045;-77
2023/08/17 12:31:52;;;;;;;13.07;9.43;;;;;;;-145.79;67.80;77063.59;5264092;28;20083;-78
2023/08/17 12:34:23;;;;;;;11.45;8.85;;;;;;;-145.79;67.36;77050.88;5263396;28;20056;-77
2023/08/17 12:36:57;;;;;;;10.45;8.88;;;;;;;-145.79;66.69;77040.25;5262948;28;20124;-78
2023/08/17 12:39:29;;;;;;;13.13;9.48;;;;;;;-145.79;67.50;77052.97;5260619;28;20040;-75
2023/08/17 12:42:00;;;;;;;13.82;12.25;;;;;;;-145.79;67.44;77042.38;5263378;28;20025;-77
2023/08/17 12:44:32;;;;;;;10.73;9.63;;;;;;;-145.79;66.98;77033.91;5262752;28;20434;-76
2023/08/17 12:47:03;;;;;;;13.55;11.73;;;;;;;-145.79;67.20;77023.31;5263281;28;20117;-80
2023/08/17 12:49:36;;;;;;;14.20;10.32;;;;;;;-145.79;66.96;77029.66;5259427;28;20053;-81
2023/08/17 12:52:07;;;;;;;9.88;8.88;;;;;;;-145.79;66.75;77029.66;5261310;28;20064;-80
2023/08/17 12:54:38;;;;;;;11.27;9.07;;;;;;;-145.79;66.84;77025.44;5260345;28;20449;-82
2023/08/17 12:57:10;;;;;;;9.85;8.93;;;;;;;-145.79;67.53;77025.44;5255405;28;20021;-81
2023/08/17 12:59:41;;;;;;;9.30;8.50;;;;;;;-145.79;67.69;77021.19;5262930;28;20041;-80
2023/08/17 13:02:12;;;;;;;9.85;8.90;;;;;;;-145.79;67.21;77031.78;5262918;28;20362;-82
2023/08/17 13:04:44;;;;;;;8.73;7.45;;;;;;;-145.79;66.95;77012.72;5261854;28;20029;-80
2023/08/17 13:07:16;;;;;;;10.57;9.52;;;;;;;-145.79;67.07;77014.84;5257776;28;20468;-80
2023/08/17 13:09:47;;;;;;;11.40;9.05;;;;;;;-145.79;66.85;77002.13;5262988;28;20039;-82
2023/08/17 13:12:19;;;;;;;11.20;10.05;;;;;;;-145.79;67.07;77014.84;5262959;28;20029;-81
2023/08/17 13:14:50;;;;;;;11.25;10.07;;;;;;;-145.79;66.39;77000.00;5263624;28;20079;-81
2023/08/17 13:17:21;;;;;;;9.55;8.57;;;;;;;-145.79;66.10;76978.81;5263281;28;20071;-81
2023/08/17 13:19:53;;;;;;;15.60;12.60;;;;;;;-145.79;65.74;76968.22;5263172;28;20132;-80
2023/08/17 13:22:24;;;;;;;11.45;10.35;;;;;;;-145.79;65.73;76987.28;5263970;28;20492;-81
2023/08/17 13:24:55;;;;;;;11.30;9.85;;;;;;;-145.79;65.78;76991.53;5265168;28;20028;-76
2023/08/17 13:27:27;;;;;;;9.05;8.15;;;;;;;-145.79;66.19;76983.03;5270995;28;20031;-76
2023/08/17 13:29:59;;;;;;;11.82;10.68;;;;;;;-145.79;65.97;76983.03;5258582;28;20471;-80
2023/08/17 13:32:30;;;;;;;11.98;10.73;;;;;;;-145.79;66.79;76989.41;5261786;28;20112;-80
2023/08/17 13:35:03;;;;;;;14.70;11.32;;;;;;;-145.79;66.96;76995.75;5261366;28;20078;-78
2023/08/17 13:37:45;;;;;;;11.52;10.35;;;;;;;-145.79;67.23;76980.94;5262585;28;20065;-88
2023/08/17 13:40:27;;;;;;;9.75;8.75;;;;;;;-145.79;66.31;76970.31;5259472;28;20049;-87
2023/08/17 13:43:00;;;;;;;11.75;10.02;;;;;;;-145.79;66.20;76978.81;5260386;28;20094;-86
2023/08/17 13:45:44;;;;;;;9.90;8.88;;;;;;;-145.79;65.88;76963.97;5261878;28;20037;-84
2023/08/17 13:51:36;;;;;;;13.15;11.05;;;;;;;-145.79;66.87;76991.53;5257251;28;20057;-83
2023/08/17 13:54:07;;;;;;;12.82;11.38;;;;;;;-145.79;67.23;77004.25;5259112;28;20049;-82
2023/08/17 13:56:39;;;;;;;13.25;11.15;;;;;;;-145.79;67.69;77012.72;5262342;28;20112;-78
2023/08/17 13:59:10;;;;;;;10.15;8.90;;;;;;;-145.79;67.21;76978.81;5261439;28;20036;-77
2023/08/17 14:01:41;;;;;;;12.25;9.77;;;;;;;-145.79;67.18;76974.56;5251735;28;20384;-74
2023/08/17 14:04:14;;;;;;;10.77;8.50;;;;;;;-145.79;66.97;76963.97;5253819;28;20032;-75
2023/08/17 14:06:45;;;;;;;10.88;9.77;;;;;;;-145.79;67.06;76968.22;5261158;28;20037;-79
2023/08/17 14:09:16;;;;;;;11.57;9.05;;;;;;;-145.79;67.76;76955.50;5261008;28;20090;-80
2023/08/17 14:11:48;;;;;;;10.10;9.10;;;;;;;-145.79;66.84;76936.41;5261450;28;20040;-81
2023/08/17 14:14:19;;;;;;;12.80;11.23;;;;;;;-145.79;67.42;76957.59;5256268;28;20028;-82
2023/08/17 14:16:50;;;;;;;17.73;15.95;;;;;;;-145.79;67.36;76970.31;5256102;28;20024;-82
2023/08/17 14:19:22;;;;;;;10.18;9.15;;;;;;;-145.79;66.69;76955.50;5261528;28;20131;-82
2023/08/17 14:21:54;;;;;;;12.60;11.43;;;;;;;-145.79;67.39;76961.84;5260527;28;20041;-82
2023/08/17 14:24:25;;;;;;;10.70;9.73;;;;;;;-145.79;67.55;76957.59;5253398;28;20035;-80
2023/08/17 14:26:58;;;;;;;15.02;11.65;;;;;;;-145.79;67.94;76966.09;5260728;28;20013;-81
2023/08/17 14:29:29;;;;;;;13.48;10.35;;;;;;;-145.79;67.87;76959.72;5260982;28;20036;-82
2023/08/17 14:32:00;;;;;;;19.85;17.92;;;;;;;-145.79;67.96;76955.50;5261025;28;20024;-83
2023/08/17 14:34:31;;;;;;;13.27;11.88;;;;;;;-145.79;67.93;76953.38;5261099;28;20021;-80
2023/08/17 14:37:03;;;;;;;14.57;13.10;;;;;;;-145.79;68.35;76966.09;5261099;28;20500;-80
2023/08/17 14:39:34;;;;;;;12.73;11.60;;;;;;;-145.79;67.88;76951.25;5261153;28;20094;-77
2023/08/17 14:42:09;;;;;;;12.73;11.27;;;;;;;-145.79;68.15;76970.31;5261933;28;20094;-87
2023/08/17 14:44:42;;;;;;;13.07;9.90;;;;;;;-145.79;67.38;76944.91;5260486;28;20067;-81
2023/08/17 14:47:14;;;;;;;10.85;9.75;;;;;;;-145.79;67.31;76936.41;5259925;28;20140;-86
2023/08/17 14:49:45;;;;;;;17.55;15.88;;;;;;;-145.79;67.73;76949.13;5260208;28;20120;-80
2023/08/17 14:52:17;;;;;;;13.93;12.48;;;;;;;-145.79;68.05;76959.72;5261634;28;20092;-81
2023/08/17 14:54:48;;;;;;;13.48;10.70;;;;;;;-145.79;68.24;76944.91;5253028;28;20025;-81
2023/08/17 14:57:19;;;;;;;13.20;10.13;;;;;;;-145.79;67.99;76940.66;5261021;28;20033;-80
2023/08/17 14:59:51;;;;;;;14.98;11.02;;;;;;;-145.79;68.01;76938.53;5261583;28;20032;-78
2023/08/17 15:02:22;;;;;;;11.80;10.60;;;;;;;-145.79;67.90;76932.19;5261849;28;20032;-81
2023/08/17 15:04:53;;;;;;;21.58;19.38;;;;;;;-145.79;68.47;76936.41;5260456;28;20025;-76
2023/08/17 15:07:25;;;;;;;10.95;9.80;;;;;;;-145.79;68.25;76925.81;5261074;28;20059;-81
2023/08/17 15:09:57;;;;;;;15.80;14.30;;;;;;;-145.79;68.17;76923.69;5259216;28;20154;-81
2023/08/17 15:12:29;;;;;;;14.80;11.43;;;;;;;-145.79;68.15;76910.97;5254704;28;20025;-79
2023/08/17 15:15:01;;;;;;;13.00;11.20;;;;;;;-145.79;68.42;76932.19;5261277;28;20029;-80
2023/08/17 15:17:32;;;;;;;14.10;11.82;;;;;;;-145.79;68.96;76951.25;5260667;28;20070;-79
2023/08/17 15:20:04;;;;;;;14.73;12.30;;;;;;;-145.79;69.15;76934.28;5252016;28;20072;-80
2023/08/17 15:22:36;;;;;;;15.85;13.18;;;;;;;-145.79;69.12;76936.41;5259179;28;20045;-79
2023/08/17 15:25:07;;;;;;;11.85;10.65;;;;;;;-145.79;69.04;76932.19;5260320;28;20091;-80
2023/08/17 15:27:39;;;;;;;12.60;10.93;;;;;;;-145.79;69.04;76936.41;5261928;28;20025;-81
2023/08/17 15:30:10;;;;;;;11.65;10.45;;;;;;;-145.79;68.20;76923.69;5260673;28;20057;-81
2023/08/17 15:32:42;;;;;;;14.60;13.15;;;;;;;-145.79;69.32;76930.06;5259750;28;20055;-83
2023/08/17 15:35:13;;;;;;;20.27;18.30;;;;;;;-145.79;69.52;76940.66;5260457;28;20044;-82
2023/08/17 15:37:45;;;;;;;18.65;16.58;;;;;;;-145.79;69.90;76944.91;5260455;28;20025;-81
2023/08/17 15:40:16;;;;;;;18.02;13.00;;;;;;;-145.79;70.20;76949.13;5259694;28;20033;-81
2023/08/17 15:42:47;;;;;;;13.63;12.18;;;;;;;-145.79;70.36;76944.91;5259752;28;20029;-80
2023/08/17 15:45:20;;;;;;;13.35;11.57;;;;;;;-145.79;69.99;76932.19;5264138;28;20526;-81
2023/08/17 15:47:51;;;;;;;14.77;13.20;;;;;;;-145.79;70.17;76938.53;5263697;28;20025;-80
2023/08/17 15:50:23;;;;;;;15.20;11.55;;;;;;;-145.79;70.28;76940.66;5264587;28;20430;-82
2023/08/17 15:52:54;;;;;;;11.57;10.45;;;;;;;-145.79;69.82;76925.81;5264076;28;20096;-81
2023/08/17 15:55:25;;;;;;;13.27;11.93;;;;;;;-145.79;70.01;76927.94;5263344;28;20033;-80
2023/08/17 15:57:57;;;;;;;11.80;10.70;;;;;;;-145.79;70.17;76927.94;5264132;28;20090;-81
2023/08/17 16:00:28;;;;;;;13.45;11.80;;;;;;;-145.79;70.73;76936.41;5263815;28;20057;-82
2023/08/17 16:02:59;;;;;;;13.70;12.30;;;;;;;-145.79;70.69;76949.13;5265981;28;20025;-83
2023/08/17 16:05:31;;;;;;;13.15;11.73;;;;;;;-145.79;70.49;76953.38;5276409;28;20040;-84
2023/08/17 16:08:02;;;;;;;13.70;12.10;;;;;;;-145.79;71.38;76970.31;5266122;28;20033;-84
2023/08/17 16:10:33;;;;;;;12.70;10.90;;;;;;;-145.79;70.75;76961.84;5265130;28;20033;-84
2023/08/17 16:13:06;;;;;;;12.27;10.95;;;;;;;-145.79;71.45;76961.84;5262049;28;20060;-79
2023/08/17 16:15:37;;;;;;;15.88;12.70;;;;;;;-145.79;71.49;76961.84;5260354;28;20089;-84
2023/08/17 16:18:09;;;;;;;13.35;12.05;;;;;;;-145.79;71.82;76966.09;5256209;28;20034;-83
2023/08/17 16:20:40;;;;;;;13.50;11.95;;;;;;;-145.79;72.64;76978.81;5264392;28;20036;-83
2023/08/17 16:23:11;;;;;;;14.48;12.98;;;;;;;-145.79;72.58;76968.22;5255362;28;20058;-81
2023/08/17 16:25:43;;;;;;;13.55;12.13;;;;;;;-145.79;72.35;76951.25;5264502;28;20040;-86
2023/08/17 16:28:15;;;;;;;14.68;11.55;;;;;;;-145.79;72.29;76959.72;5264502;28;20047;-85
2023/08/17 16:30:46;;;;;;;13.25;11.98;;;;;;;-145.79;72.78;76951.25;5264506;28;20081;-87
2023/08/17 16:33:17;;;;;;;12.95;11.65;;;;;;;-145.79;72.64;76953.38;5264447;28;20112;-87
2023/08/17 16:35:49;;;;;;;13.90;12.60;;;;;;;-145.79;72.82;76953.38;5263962;28;20021;-87
2023/08/17 16:38:20;;;;;;;14.80;13.30;;;;;;;-145.79;73.11;76970.31;5264994;28;20465;-87
2023/08/17 16:40:51;;;;;;;13.13;11.73;;;;;;;-145.79;73.08;76961.84;5264703;28;20061;-87
2023/08/17 16:43:23;;;;;;;14.80;13.32;;;;;;;-145.79;73.36;76959.72;5263744;28;20435;-88
2023/08/17 16:45:54;;;;;;;12.80;11.57;;;;;;;-145.79;73.48;76953.38;5264280;28;20383;-88
2023/08/17 16:48:26;;;;;;;12.98;11.73;;;;;;;-145.79;73.53;76955.50;5264399;28;20499;-88
2023/08/17 16:50:57;;;;;;;13.43;12.23;;;;;;;-145.79;73.88;76966.09;5263750;28;20096;-86
2023/08/17 16:53:28;;;;;;;14.43;12.98;;;;;;;-145.79;74.12;76961.84;5264253;28;20033;-90
